Flight Track Log - Related Links

Times and Time Zones

All times are in EST time to prevent confusion due to time zone crossing. See the CPT8773 flight status page for this flight to view local times or setup timezone preferences in your user account.

Time Position Orientation Groundspeed Altitude Reporting Facility
EST Latitude Longitude Course Direction KTS MPH feet Rate Location/Type
Fri 10:16:13 AM 42.9486 -106.5050 351° North 108 124 8,200  Level Salt Lake Center
Fri 10:17:18 AM 42.9864 -106.5086 356° North 115 132 9,300 952 Climbing Denver Center
Fri 10:18:19 AM 43.0183 -106.5139 353° North 118 136 10,200 878 Climbing Denver Center
Fri 10:19:21 AM 43.0497 -106.5156 358° North 118 136 11,100 878 Climbing Denver Center
Fri 10:20:00 AM 43.0671 -106.7070 307° West  Level Estimated
Fri 10:20:22 AM 43.0867 -106.5192 356° North 119 137 12,000  Level Denver Center
Fri 10:21:00 AM 43.1063 -106.7153 351° North  Level FlightAware Approximate
Fri 10:21:23 AM 43.1219 -106.5222 356° North 126 145 12,000  Level Denver Center
Fri 10:22:25 AM 43.1717 -106.5272 356° North 151 174 12,100 49 Climbing Denver Center
Fri 10:23:26 AM 43.2147 -106.5328 355° North 158 182 12,100  Level Denver Center
Fri 10:24:27 AM 43.2469 -106.5675 322° Northwest 156 180 12,100  Level Denver Center
Fri 10:25:29 AM 43.2722 -106.6211 303° West 152 175 12,100 -50 Level Denver Center
Fri 10:26:26 AM 43.2942 -106.6686 302° West 152 175 12,000 -50 Descending Salt Lake Center
Fri 10:27:28 AM 43.3181 -106.7133 306° West 152 175 12,000  Level Salt Lake Center
Fri 10:28:29 AM 43.3458 -106.7653 306° West 151 174 12,000  Level Salt Lake Center
Fri 10:29:30 AM 43.3689 -106.8103 305° West 151 174 12,000  Level Salt Lake Center
Fri 10:30:32 AM 43.3919 -106.8542 306° West 148 170 12,000  Level Salt Lake Center
Fri 10:31:33 AM 43.4186 -106.9044 306° West 147 169 12,000  Level Salt Lake Center
Fri 10:32:34 AM 43.4436 -106.9528 305° West 147 169 12,000  Level Salt Lake Center
Fri 10:33:36 AM 43.4683 -106.9975 307° West 147 169 12,000  Level Salt Lake Center
Fri 10:34:37 AM 43.4919 -107.0444 305° West 148 170 12,000 49 Level Salt Lake Center
Fri 10:35:38 AM 43.5158 -107.0883 307° West 145 167 12,100 49 Climbing Salt Lake Center
Fri 10:36:40 AM 43.5389 -107.1339 305° West 145 167 12,100  Level Salt Lake Center
Fri 10:37:41 AM 43.5631 -107.1789 307° West 147 169 12,100 -49 Level Salt Lake Center
Fri 10:38:42 AM 43.5875 -107.2225 308° West 145 167 12,000  Descending Salt Lake Center
Fri 10:39:44 AM 43.6111 -107.2675 306° West 145 167 12,100 49 Climbing Salt Lake Center
Fri 10:40:45 AM 43.6342 -107.3139 304° West 145 167 12,100  Level Salt Lake Center
Fri 10:41:46 AM 43.6628 -107.3689 306° West 146 168 12,100  Level Salt Lake Center
Fri 10:42:48 AM 43.6853 -107.4139 305° West 145 167 12,100  Level Salt Lake Center
Fri 10:43:49 AM 43.7103 -107.4597 307° West 147 169 12,100  Level Salt Lake Center
Fri 10:44:51 AM 43.7331 -107.5033 306° West 145 167 12,100  Level Salt Lake Center
Fri 10:45:52 AM 43.7550 -107.5492 304° West 143 165 12,100  Level Salt Lake Center
Fri 10:46:53 AM 43.7786 -107.5936 306° West 143 165 12,100  Level Salt Lake Center
Fri 10:47:55 AM 43.8017 -107.6378 306° West 143 165 12,100  Level Salt Lake Center
Fri 10:48:56 AM 43.8250 -107.6831 306° West 143 165 12,100  Level Salt Lake Center
Fri 10:49:58 AM 43.8531 -107.7369 306° West 143 165 12,100  Level Salt Lake Center
Fri 10:50:59 AM 43.8769 -107.7825 306° West 145 167 12,100  Level Salt Lake Center
Fri 10:52:01 AM 43.9003 -107.8292 305° West 146 168 12,100  Level Salt Lake Center
Fri 10:53:02 AM 43.9231 -107.8756 304° West 146 168 12,100  Level Salt Lake Center
Fri 10:54:04 AM 43.9467 -107.9211 306° West 146 168 12,100  Level Salt Lake Center
Fri 10:55:05 AM 43.9706 -107.9672 306° West 146 168 12,100  Level Salt Lake Center
Fri 10:56:07 AM 43.9975 -108.0081 313° West 146 168 12,100 -49 Level Salt Lake Center
Fri 10:57:08 AM 44.0247 -108.0508 312° West 147 169 12,000 -49 Descending Salt Lake Center
Fri 10:58:10 AM 44.0483 -108.0981 305° West 147 169 12,000  Level Salt Lake Center
Fri 10:59:11 AM 44.0767 -108.1539 305° West 147 169 12,000  Level Salt Lake Center
Fri 11:00:13 AM 44.1008 -108.2000 306° West 147 169 12,000  Level Salt Lake Center
Fri 11:01:14 AM 44.1250 -108.2478 305° West 148 170 12,000  Level Salt Lake Center
Fri 11:02:16 AM 44.1486 -108.2947 305° West 149 171 12,000  Level Salt Lake Center
Fri 11:03:17 AM 44.1842 -108.3258 328° Northwest 153 176 12,000  Level Salt Lake Center
Fri 11:04:19 AM 44.2183 -108.3561 328° Northwest 149 171 12,000  Level Salt Lake Center
Fri 11:05:20 AM 44.2536 -108.3869 328° Northwest 149 171 12,000  Level Salt Lake Center
Fri 11:06:22 AM 44.2889 -108.4172 328° Northwest 149 171 12,000  Level Salt Lake Center
Fri 11:07:24 AM 44.3308 -108.4547 327° Northwest 149 171 12,000  Level Salt Lake Center
Fri 11:08:25 AM 44.3664 -108.4861 328° Northwest 150 173 12,000  Level Salt Lake Center
Fri 11:09:27 AM 44.4014 -108.5164 328° Northwest 149 171 12,000 -390 Level Salt Lake Center
Fri 11:10:28 AM 44.4378 -108.5483 328° Northwest 150 173 11,200 -780 Descending Salt Lake Center
Fri 11:11:30 AM 44.4767 -108.5828 328° Northwest 156 180 10,400 -726 Descending Salt Lake Center
Fri 11:12:32 AM 44.5158 -108.6194 326° Northwest 162 186 9,700 -629 Descending Salt Lake Center
Fri 11:13:34 AM 44.5575 -108.6542 329° Northwest 168 193 9,100 -439 Descending Salt Lake Center
Fri 11:14:35 AM 44.5961 -108.6894 327° Northwest 168 193 8,800 -488 Descending Salt Lake Center
Fri 11:15:37 AM 44.6394 -108.7397 320° Northwest 168 193 8,100 -387 Descending Salt Lake Center
Fri 11:16:39 AM 44.6481 -108.7856 285° West 157 181 8,000 -194 Descending Salt Lake Center
Fri 11:17:41 AM 44.6294 -108.8322 241° Southwest 145 167 7,700 -244 Descending Salt Lake Center
Fri 11:18:42 AM 44.6056 -108.8747 232° Southwest 140 161 7,500 -244 Descending Salt Lake Center
Fri 11:19:44 AM 44.5828 -108.9150 232° Southwest 137 158 7,200 -290 Descending Salt Lake Center

Login

Don't have an account? Register now (free) for customized features, flight alerts, and more!